createdAt,value
2019-03-19T00:01:14.754Z,8.70
2019-03-19T00:03:48.490Z,9.78
2019-03-19T00:06:22.158Z,8.88
2019-03-19T00:08:55.851Z,9.00
2019-03-19T00:11:29.630Z,9.03
2019-03-19T00:14:03.837Z,8.63
2019-03-19T00:16:38.036Z,8.85
2019-03-19T00:19:11.324Z,8.20
2019-03-19T00:21:44.922Z,8.43
2019-03-19T00:24:18.912Z,7.85
2019-03-19T00:26:53.013Z,8.75
2019-03-19T00:29:27.370Z,8.00
2019-03-19T00:32:01.140Z,7.17
2019-03-19T00:34:35.289Z,7.47
2019-03-19T00:37:09.482Z,6.50
2019-03-19T00:39:43.699Z,5.97
2019-03-19T00:42:17.401Z,5.05
2019-03-19T00:44:51.227Z,5.28
2019-03-19T00:47:24.940Z,4.58
2019-03-19T00:49:57.792Z,4.28
2019-03-19T00:52:31.569Z,5.00
2019-03-19T00:55:04.716Z,5.03
2019-03-19T00:57:38.903Z,5.30
2019-03-19T01:00:12.199Z,5.62
2019-03-19T01:02:45.840Z,5.65
2019-03-19T01:05:18.856Z,5.55
2019-03-19T01:07:52.627Z,5.60
2019-03-19T01:10:26.943Z,5.50
2019-03-19T01:13:00.064Z,5.37
2019-03-19T01:15:33.840Z,5.42
2019-03-19T01:18:08.022Z,5.92
2019-03-19T01:20:42.114Z,5.30
2019-03-19T01:23:15.741Z,5.62
2019-03-19T01:25:55.586Z,5.70
2019-03-19T01:28:25.179Z,5.35
2019-03-19T01:30:59.722Z,5.05
2019-03-19T01:33:33.732Z,5.10
2019-03-19T01:36:07.929Z,5.50
2019-03-19T01:38:42.091Z,5.70
2019-03-19T01:41:16.639Z,6.25
2019-03-19T01:43:50.932Z,5.58
2019-03-19T01:46:24.891Z,5.12
2019-03-19T01:48:59.025Z,5.28
2019-03-19T01:51:33.119Z,6.00
2019-03-19T01:54:07.353Z,5.78
2019-03-19T01:56:40.982Z,6.15
2019-03-19T01:59:14.665Z,5.20
2019-03-19T02:01:48.497Z,4.90
2019-03-19T02:04:23.181Z,5.83
2019-03-19T02:06:57.440Z,5.62
2019-03-19T02:09:31.217Z,5.00
2019-03-19T02:12:04.503Z,5.58
2019-03-19T02:14:38.516Z,5.50
2019-03-19T02:17:12.759Z,5.45
2019-03-19T02:19:47.065Z,5.70
2019-03-19T02:22:21.177Z,5.45
2019-03-19T02:24:54.974Z,5.30
2019-03-19T02:27:29.227Z,5.00
2019-03-19T02:30:02.923Z,5.70
2019-03-19T02:32:36.484Z,5.37
2019-03-19T02:35:09.696Z,4.95
2019-03-19T02:37:43.954Z,4.53
2019-03-19T02:40:16.841Z,4.80
2019-03-19T02:42:50.539Z,4.90
2019-03-19T02:45:24.359Z,4.47
2019-03-19T02:47:58.449Z,5.10
2019-03-19T02:50:32.538Z,4.85
2019-03-19T02:53:06.229Z,4.53
2019-03-19T02:55:40.391Z,4.30
2019-03-19T02:58:14.464Z,5.40
2019-03-19T03:00:48.476Z,6.10
2019-03-19T03:03:22.674Z,5.37
2019-03-19T03:05:56.816Z,4.60
2019-03-19T03:08:31.126Z,4.30
2019-03-19T03:11:04.816Z,4.40
2019-03-19T03:13:38.518Z,5.12
2019-03-19T03:16:12.758Z,6.20
2019-03-19T03:18:46.462Z,7.03
2019-03-19T03:21:20.265Z,6.83
2019-03-19T03:23:54.019Z,6.37
2019-03-19T03:26:28.282Z,6.53
2019-03-19T03:29:01.948Z,6.87
2019-03-19T03:31:35.726Z,7.22
2019-03-19T03:34:09.390Z,5.60
2019-03-19T03:36:43.717Z,5.70
2019-03-19T03:39:17.820Z,4.90
2019-03-19T03:41:52.739Z,4.60
2019-03-19T03:44:26.998Z,4.53
2019-03-19T03:47:00.982Z,5.15
2019-03-19T03:49:34.081Z,6.42
2019-03-19T03:52:07.882Z,5.70
2019-03-19T03:54:40.662Z,4.78
2019-03-19T03:57:14.905Z,5.30
2019-03-19T03:59:48.840Z,4.90
2019-03-19T04:02:23.221Z,4.25
2019-03-19T04:04:57.457Z,4.42
2019-03-19T04:07:31.545Z,3.95
2019-03-19T04:10:05.854Z,4.90
2019-03-19T04:12:39.033Z,4.75
2019-03-19T04:15:13.288Z,4.87
2019-03-19T04:17:47.312Z,5.05
2019-03-19T04:20:19.977Z,4.55
2019-03-19T04:22:53.540Z,4.80
2019-03-19T04:25:27.044Z,4.95
2019-03-19T04:28:01.182Z,5.00
2019-03-19T04:30:35.061Z,5.12
2019-03-19T04:33:07.965Z,4.53
2019-03-19T04:35:42.344Z,5.28
2019-03-19T04:38:16.299Z,5.05
2019-03-19T04:40:50.106Z,4.85
2019-03-19T04:43:23.703Z,4.95
2019-03-19T04:45:57.730Z,4.45
2019-03-19T04:48:31.399Z,4.42
2019-03-19T04:51:05.842Z,4.10
2019-03-19T04:53:39.438Z,4.90
2019-03-19T04:56:13.325Z,5.53
2019-03-19T04:58:46.831Z,5.50
2019-03-19T05:01:20.990Z,5.30
2019-03-19T05:03:54.457Z,6.17
2019-03-19T05:06:28.160Z,5.42
2019-03-19T05:09:01.782Z,4.85
2019-03-19T05:11:35.479Z,5.25
2019-03-19T05:14:09.485Z,4.80
2019-03-19T05:16:43.192Z,4.90
2019-03-19T05:19:17.181Z,4.60
2019-03-19T05:21:51.211Z,4.20
2019-03-19T05:24:24.912Z,4.45
2019-03-19T05:26:59.058Z,5.30
2019-03-19T05:29:34.173Z,4.75
2019-03-19T05:32:07.745Z,6.22
2019-03-19T05:34:41.468Z,7.35
2019-03-19T05:37:15.583Z,7.03
2019-03-19T05:39:49.678Z,5.65
2019-03-19T05:42:23.810Z,5.03
2019-03-19T05:44:57.234Z,4.75
2019-03-19T05:47:37.152Z,6.17
2019-03-19T05:50:05.988Z,5.70
2019-03-19T05:52:40.062Z,5.90
2019-03-19T05:55:12.595Z,5.65
2019-03-19T05:57:49.740Z,5.33
2019-03-19T06:00:22.326Z,5.90
2019-03-19T06:02:56.232Z,5.85
2019-03-19T06:05:29.931Z,5.92
2019-03-19T06:08:03.495Z,5.80
2019-03-19T06:10:37.633Z,6.10
2019-03-19T06:13:11.349Z,4.97
2019-03-19T06:15:45.575Z,4.75
2019-03-19T06:18:19.372Z,4.95
2019-03-19T06:20:52.770Z,4.60
2019-03-19T06:23:26.663Z,4.20
2019-03-19T06:26:00.668Z,3.70
2019-03-19T06:28:35.730Z,3.40
2019-03-19T06:31:09.598Z,3.72
2019-03-19T06:33:43.047Z,4.22
2019-03-19T06:36:17.244Z,3.77
2019-03-19T06:38:51.568Z,3.87
2019-03-19T06:41:25.763Z,3.75
2019-03-19T06:43:59.801Z,4.62
2019-03-19T06:46:33.731Z,4.42
2019-03-19T06:49:07.574Z,4.42
2019-03-19T06:51:41.731Z,4.00
2019-03-19T06:54:15.918Z,4.00
2019-03-19T06:56:49.604Z,4.35
2019-03-19T06:59:23.226Z,4.78
2019-03-19T07:01:56.962Z,4.78
2019-03-19T07:04:30.260Z,3.72
2019-03-19T07:07:04.012Z,3.85
2019-03-19T07:09:37.205Z,4.08
2019-03-19T07:12:09.987Z,3.77
2019-03-19T07:14:43.662Z,3.77
2019-03-19T07:17:17.695Z,4.28
2019-03-19T07:19:51.766Z,3.80
2019-03-19T07:22:25.848Z,4.83
2019-03-19T07:24:59.858Z,3.30
2019-03-19T07:27:33.761Z,4.22
2019-03-19T07:30:08.107Z,4.40
2019-03-19T07:32:42.399Z,4.37
2019-03-19T07:35:16.520Z,4.55
2019-03-19T07:37:50.212Z,4.85
2019-03-19T07:40:23.490Z,4.47
2019-03-19T07:42:57.946Z,4.30
2019-03-19T07:45:31.643Z,5.42
2019-03-19T07:48:05.337Z,5.17
2019-03-19T07:50:38.126Z,4.45
2019-03-19T07:53:11.729Z,4.60
2019-03-19T07:55:45.611Z,4.70
2019-03-19T07:58:27.881Z,4.67
2019-03-19T08:00:54.705Z,4.83
2019-03-19T08:03:28.110Z,4.95
2019-03-19T08:06:01.048Z,5.45
2019-03-19T08:08:33.951Z,4.90
2019-03-19T08:11:07.637Z,4.40
2019-03-19T08:13:39.620Z,5.03
2019-03-19T08:16:12.028Z,4.85
2019-03-19T08:18:44.383Z,3.83
2019-03-19T08:21:17.297Z,4.33
2019-03-19T08:23:51.498Z,5.65
2019-03-19T08:26:25.681Z,4.47
2019-03-19T08:28:59.902Z,4.85
2019-03-19T08:31:34.315Z,5.10
2019-03-19T08:34:08.084Z,4.35
2019-03-19T08:36:41.832Z,4.58
2019-03-19T08:39:16.555Z,5.05
2019-03-19T08:41:50.399Z,4.92
2019-03-19T08:44:28.036Z,4.92
2019-03-19T08:47:00.437Z,5.12
2019-03-19T08:49:34.547Z,4.70
2019-03-19T08:52:08.767Z,4.30
2019-03-19T08:54:43.080Z,4.05
2019-03-19T08:57:16.873Z,4.05
2019-03-19T08:59:50.617Z,4.85
2019-03-19T09:02:24.691Z,3.75
2019-03-19T09:04:58.842Z,4.28
2019-03-19T09:07:32.811Z,3.80
2019-03-19T09:10:06.762Z,4.00
2019-03-19T09:12:40.543Z,3.95
2019-03-19T09:15:14.146Z,4.50
2019-03-19T09:17:47.675Z,4.30
2019-03-19T09:20:20.514Z,3.75
2019-03-19T09:22:54.666Z,3.58
2019-03-19T09:25:28.535Z,3.37
2019-03-19T09:28:02.133Z,3.55
2019-03-19T09:30:36.988Z,3.22
2019-03-19T09:33:11.108Z,3.02
2019-03-19T09:35:45.012Z,3.10
2019-03-19T09:38:18.604Z,3.22
2019-03-19T09:40:52.510Z,3.65
2019-03-19T09:43:26.541Z,3.90
2019-03-19T09:46:00.459Z,3.75
2019-03-19T09:48:34.118Z,3.12
2019-03-19T09:51:08.067Z,2.90
2019-03-19T09:53:42.200Z,3.70
2019-03-19T09:56:15.970Z,3.40
2019-03-19T09:58:49.789Z,3.25
2019-03-19T10:01:23.424Z,3.33
2019-03-19T10:03:57.038Z,3.27
2019-03-19T10:06:29.862Z,2.60
2019-03-19T10:09:03.877Z,2.58
2019-03-19T10:11:37.589Z,5.17
2019-03-19T10:14:10.251Z,3.72
2019-03-19T10:16:44.135Z,3.72
2019-03-19T10:19:16.980Z,4.35
2019-03-19T10:21:49.377Z,3.65
2019-03-19T10:24:21.854Z,2.90
2019-03-19T10:26:54.226Z,3.40
2019-03-19T10:29:26.298Z,4.08
2019-03-19T10:31:58.715Z,3.62
2019-03-19T10:34:31.369Z,3.40
2019-03-19T10:37:04.557Z,3.10
2019-03-19T10:39:37.871Z,2.72
2019-03-19T10:42:10.024Z,3.30
2019-03-19T10:44:43.141Z,3.10
2019-03-19T10:47:16.514Z,2.90
2019-03-19T10:49:48.974Z,3.17
2019-03-19T10:52:22.285Z,2.77
2019-03-19T10:54:55.388Z,2.55
2019-03-19T10:57:28.793Z,2.55
2019-03-19T11:00:19.961Z,2.00
2019-03-19T11:02:53.868Z,1.90
2019-03-19T11:05:26.184Z,1.72
2019-03-19T11:07:59.198Z,1.92
2019-03-19T11:10:31.947Z,2.37
2019-03-19T11:13:05.772Z,2.52
2019-03-19T11:15:39.624Z,2.00
2019-03-19T11:18:12.988Z,1.70
2019-03-19T11:20:47.076Z,1.85
2019-03-19T11:23:21.528Z,1.87
2019-03-19T11:25:54.909Z,1.40
2019-03-19T11:28:29.141Z,1.80
2019-03-19T11:31:02.399Z,1.85
2019-03-19T11:33:35.651Z,1.67
2019-03-19T11:36:09.651Z,1.72
2019-03-19T11:38:42.999Z,1.47
2019-03-19T11:41:16.842Z,1.30
2019-03-19T11:43:50.206Z,1.85
2019-03-19T11:46:24.320Z,1.60
2019-03-19T11:48:58.047Z,2.27
2019-03-19T11:51:31.683Z,1.87
2019-03-19T11:54:05.993Z,2.08
2019-03-19T11:56:40.074Z,1.95
2019-03-19T11:59:14.358Z,2.50
2019-03-19T12:01:48.616Z,1.98
2019-03-19T12:04:22.936Z,1.85
2019-03-19T12:06:57.023Z,2.25
2019-03-19T12:09:31.033Z,1.67
2019-03-19T12:12:04.741Z,2.27
2019-03-19T12:14:38.678Z,1.85
2019-03-19T12:17:12.638Z,2.05
2019-03-19T12:19:46.756Z,2.00
2019-03-19T12:22:20.898Z,1.90
2019-03-19T12:24:54.386Z,1.82
2019-03-19T12:27:28.051Z,1.85
2019-03-19T12:30:01.576Z,1.80
2019-03-19T12:32:35.304Z,2.67
2019-03-19T12:35:08.793Z,2.35
2019-03-19T12:37:42.600Z,2.00
2019-03-19T12:40:15.943Z,2.20
2019-03-19T12:42:49.933Z,2.47
2019-03-19T12:45:22.275Z,2.10
2019-03-19T12:47:55.377Z,1.90
2019-03-19T12:50:27.334Z,1.77
2019-03-19T12:53:01.069Z,1.75
2019-03-19T12:55:34.852Z,1.90
2019-03-19T12:58:08.040Z,2.08
2019-03-19T13:00:40.807Z,1.85
2019-03-19T13:03:12.672Z,2.10
2019-03-19T13:05:55.969Z,2.27
2019-03-19T13:08:28.353Z,2.52
2019-03-19T13:11:01.120Z,1.98
2019-03-19T13:13:33.061Z,2.08
2019-03-19T13:16:06.963Z,2.60
2019-03-19T13:18:39.283Z,2.40
2019-03-19T13:21:14.070Z,2.37
2019-03-19T13:23:47.421Z,2.37
2019-03-19T13:26:20.811Z,2.00
2019-03-19T13:28:52.780Z,2.60
2019-03-19T13:31:25.115Z,2.37
2019-03-19T13:33:57.577Z,2.67
2019-03-19T13:36:31.230Z,2.25
2019-03-19T13:39:04.012Z,2.77
2019-03-19T13:41:36.650Z,2.30
2019-03-19T13:44:11.319Z,2.37
2019-03-19T13:46:51.112Z,3.00
2019-03-19T13:49:27.289Z,2.60
2019-03-19T13:51:59.594Z,2.70
2019-03-19T13:54:31.956Z,2.95
2019-03-19T13:57:04.829Z,2.60
2019-03-19T13:59:37.223Z,3.50
2019-03-19T14:02:09.517Z,2.50
2019-03-19T14:04:42.624Z,3.25
2019-03-19T14:07:15.099Z,2.77
2019-03-19T14:09:48.767Z,2.40
2019-03-19T14:12:22.250Z,2.15
2019-03-19T14:14:54.534Z,2.20
2019-03-19T14:17:26.961Z,2.27
2019-03-19T14:19:59.201Z,2.27
2019-03-19T14:22:32.864Z,3.00
2019-03-19T14:25:05.290Z,2.87
2019-03-19T14:27:37.231Z,2.77
2019-03-19T14:30:17.012Z,2.72
2019-03-19T14:32:49.393Z,2.40
2019-03-19T14:35:22.217Z,2.95
2019-03-19T14:37:54.195Z,2.52
2019-03-19T14:40:26.633Z,3.17
2019-03-19T14:43:01.456Z,2.60
2019-03-19T14:45:34.738Z,2.42
2019-03-19T14:48:08.731Z,2.55
2019-03-19T14:50:41.187Z,2.27
2019-03-19T14:53:14.403Z,2.85
2019-03-19T14:55:49.355Z,3.10
2019-03-19T14:58:23.507Z,2.90
2019-03-19T15:00:57.753Z,2.25
2019-03-19T15:03:37.186Z,2.67
2019-03-19T15:06:16.796Z,3.05
2019-03-19T15:08:50.582Z,2.83
2019-03-19T15:11:24.860Z,2.83
2019-03-19T15:13:59.188Z,2.30
2019-03-19T15:16:33.453Z,3.22
2019-03-19T15:19:07.807Z,4.87
2019-03-19T15:21:41.385Z,3.62
2019-03-19T15:24:14.982Z,3.22
2019-03-19T15:26:49.213Z,3.80
2019-03-19T15:29:23.240Z,3.30
2019-03-19T15:31:57.350Z,2.40
2019-03-19T15:34:30.939Z,2.65
2019-03-19T15:37:03.712Z,3.90
2019-03-19T15:39:38.064Z,3.40
2019-03-19T15:42:12.067Z,3.60
2019-03-19T15:44:46.145Z,3.35
2019-03-19T15:47:20.366Z,3.37
2019-03-19T15:49:54.719Z,3.05
2019-03-19T15:52:30.456Z,2.72
2019-03-19T15:55:04.059Z,3.55
2019-03-19T15:57:38.085Z,3.45
2019-03-19T16:00:13.965Z,3.42
2019-03-19T16:02:47.624Z,3.47
2019-03-19T16:05:21.852Z,3.50
2019-03-19T16:07:55.502Z,2.42
2019-03-19T16:10:28.701Z,3.45
2019-03-19T16:13:01.559Z,2.75
2019-03-19T16:15:35.748Z,3.10
2019-03-19T16:18:09.755Z,3.30
2019-03-19T16:20:43.514Z,3.50
2019-03-19T16:23:17.767Z,3.02
2019-03-19T16:25:51.476Z,3.05
2019-03-19T16:28:25.059Z,7.80
2019-03-19T16:30:59.309Z,11.22
2019-03-19T16:33:33.412Z,13.22
2019-03-19T16:36:06.679Z,12.15
2019-03-19T16:38:40.411Z,10.80
2019-03-19T16:41:13.785Z,11.00
2019-03-19T16:43:47.002Z,10.45
2019-03-19T16:46:19.833Z,10.48
2019-03-19T16:48:54.200Z,11.88
2019-03-19T16:51:27.885Z,11.68
2019-03-19T16:54:02.103Z,10.58
2019-03-19T16:56:35.772Z,12.82
2019-03-19T16:59:13.168Z,12.28
2019-03-19T17:01:46.696Z,10.50
2019-03-19T17:04:22.465Z,8.53
2019-03-19T17:06:55.881Z,7.42
2019-03-19T17:09:30.807Z,7.50
2019-03-19T17:12:05.820Z,7.45
2019-03-19T17:14:41.942Z,7.30
2019-03-19T17:17:27.400Z,7.65
2019-03-19T17:20:00.341Z,8.75
2019-03-19T17:22:32.849Z,9.93
2019-03-19T17:25:05.863Z,16.42
2019-03-19T17:27:39.691Z,13.48
2019-03-19T17:30:22.400Z,12.60
2019-03-19T17:32:54.820Z,13.72
2019-03-19T17:35:26.820Z,25.65
2019-03-19T17:38:00.624Z,26.85
2019-03-19T17:40:41.446Z,30.88
2019-03-19T17:43:10.785Z,31.37
2019-03-19T17:45:44.137Z,29.02
2019-03-19T17:48:17.789Z,25.80
2019-03-19T17:50:51.597Z,25.72
2019-03-19T17:53:25.673Z,26.77
2019-03-19T17:55:59.894Z,24.82
2019-03-19T17:58:34.151Z,22.98
2019-03-19T18:01:17.066Z,24.50
2019-03-19T18:03:42.758Z,33.88
2019-03-19T18:06:15.255Z,35.38
2019-03-19T18:08:48.171Z,35.00
2019-03-19T18:11:20.710Z,60.35
2019-03-19T18:13:53.556Z,63.42
2019-03-19T18:16:27.783Z,48.75
2019-03-19T18:18:59.794Z,46.77
2019-03-19T18:21:32.848Z,45.45
2019-03-19T18:24:08.994Z,49.65
2019-03-19T18:26:41.884Z,59.55
2019-03-19T18:29:14.770Z,78.85
2019-03-19T18:31:47.725Z,95.92
2019-03-19T18:34:19.873Z,97.72
2019-03-19T18:36:52.853Z,98.55
2019-03-19T18:39:24.854Z,97.97
2019-03-19T18:41:58.652Z,102.40
2019-03-19T18:44:30.801Z,104.95
2019-03-19T18:47:03.137Z,94.15
2019-03-19T18:49:36.959Z,99.17
2019-03-19T18:52:10.383Z,101.33
2019-03-19T18:54:42.780Z,115.75
2019-03-19T18:57:14.795Z,128.38
2019-03-19T18:59:58.810Z,110.42
2019-03-19T19:02:31.273Z,110.25
2019-03-19T19:05:04.591Z,110.50
2019-03-19T19:07:37.248Z,105.35
2019-03-19T19:10:10.429Z,101.78
2019-03-19T19:12:42.795Z,105.92
2019-03-19T19:15:16.870Z,108.15
2019-03-19T19:17:49.749Z,105.55
2019-03-19T19:20:28.948Z,106.15
2019-03-19T19:23:03.060Z,115.32
2019-03-19T19:25:36.049Z,107.32
2019-03-19T19:28:09.358Z,116.90
2019-03-19T19:30:42.260Z,133.03
2019-03-19T19:33:14.767Z,138.30
2019-03-19T19:35:54.304Z,175.18
2019-03-19T19:38:27.565Z,155.93
2019-03-19T19:41:00.488Z,132.57
2019-03-19T19:43:32.520Z,124.42
2019-03-19T19:46:05.021Z,111.92
2019-03-19T19:48:37.678Z,112.60
2019-03-19T19:51:10.972Z,90.28
2019-03-19T19:53:43.972Z,75.17
2019-03-19T19:56:17.905Z,67.87
2019-03-19T19:58:49.974Z,65.35
2019-03-19T20:01:22.103Z,58.80
2019-03-19T20:03:54.076Z,58.20
2019-03-19T20:06:26.464Z,56.95
2019-03-19T20:08:59.013Z,94.72
2019-03-19T20:11:34.938Z,94.20
2019-03-19T20:14:08.333Z,63.33
2019-03-19T20:16:42.144Z,46.15
2019-03-19T20:19:14.556Z,42.55
2019-03-19T20:21:47.461Z,35.75
2019-03-19T20:24:19.887Z,33.13
2019-03-19T20:26:52.338Z,32.55
2019-03-19T20:29:25.736Z,31.75
2019-03-19T20:31:58.072Z,32.42
2019-03-19T20:34:31.326Z,43.38
2019-03-19T20:37:03.848Z,41.45
2019-03-19T20:39:36.239Z,47.93
2019-03-19T20:42:09.235Z,45.78
2019-03-19T20:44:41.570Z,45.70
2019-03-19T20:47:14.159Z,45.78
2019-03-19T20:49:48.062Z,71.75
2019-03-19T20:52:21.920Z,109.37
2019-03-19T20:54:53.950Z,123.22
2019-03-19T20:57:26.039Z,108.75
2019-03-19T20:59:58.528Z,92.75
2019-03-19T21:02:31.598Z,77.90
2019-03-19T21:05:03.537Z,73.55
2019-03-19T21:07:41.771Z,74.82
2019-03-19T21:10:20.225Z,73.45
2019-03-19T21:12:54.614Z,72.47
2019-03-19T21:15:29.248Z,56.48
2019-03-19T21:18:04.153Z,42.70
2019-03-19T21:20:37.594Z,36.60
2019-03-19T21:23:11.777Z,37.25
2019-03-19T21:25:46.696Z,44.73
2019-03-19T21:28:22.510Z,44.90
2019-03-19T21:30:57.175Z,45.60
2019-03-19T21:33:31.565Z,46.15
2019-03-19T21:36:04.614Z,45.33
2019-03-19T21:38:39.050Z,43.55
2019-03-19T21:41:14.914Z,42.85
2019-03-19T21:43:48.861Z,47.08
2019-03-19T21:46:22.339Z,43.55
2019-03-19T21:48:56.494Z,42.40
2019-03-19T21:51:30.836Z,40.88
2019-03-19T21:54:05.807Z,37.78
2019-03-19T21:56:40.609Z,35.03
2019-03-19T21:59:14.599Z,35.10
2019-03-19T22:01:48.047Z,34.63
2019-03-19T22:04:22.017Z,35.85
2019-03-19T22:06:56.507Z,36.80
2019-03-19T22:09:32.382Z,35.08
2019-03-19T22:12:06.423Z,37.08
2019-03-19T22:14:40.192Z,37.10
2019-03-19T22:17:16.133Z,39.63
2019-03-19T22:19:52.579Z,39.78
2019-03-19T22:22:26.158Z,39.90
2019-03-19T22:24:59.875Z,50.52
2019-03-19T22:27:33.717Z,51.77
2019-03-19T22:30:07.896Z,55.05
2019-03-19T22:32:41.709Z,56.50
2019-03-19T22:35:15.197Z,51.08
2019-03-19T22:37:49.626Z,43.23
2019-03-19T22:40:22.565Z,37.17
2019-03-19T22:42:56.931Z,35.60
2019-03-19T22:45:30.170Z,37.78
2019-03-19T22:48:04.356Z,37.70
2019-03-19T22:50:37.751Z,35.85
2019-03-19T22:53:11.615Z,35.03
2019-03-19T22:55:45.941Z,33.40
2019-03-19T22:58:19.742Z,34.13
2019-03-19T23:00:54.756Z,39.23
2019-03-19T23:03:28.386Z,39.55
2019-03-19T23:06:02.262Z,43.65
2019-03-19T23:08:35.651Z,51.05
2019-03-19T23:11:10.231Z,55.43
2019-03-19T23:13:44.730Z,59.60
2019-03-19T23:16:19.034Z,54.42
2019-03-19T23:18:52.768Z,58.75
2019-03-19T23:21:26.586Z,63.65
2019-03-19T23:24:00.874Z,60.00
2019-03-19T23:26:35.117Z,58.15
2019-03-19T23:29:08.674Z,56.30
2019-03-19T23:31:42.891Z,55.65
2019-03-19T23:34:19.001Z,40.80
2019-03-19T23:36:53.115Z,54.77
2019-03-19T23:39:26.529Z,43.10
2019-03-19T23:42:00.309Z,43.33
2019-03-19T23:44:34.499Z,47.65
2019-03-19T23:47:08.456Z,48.90
2019-03-19T23:49:42.813Z,45.48
2019-03-19T23:52:17.686Z,50.10
2019-03-19T23:54:52.002Z,50.38
2019-03-19T23:57:25.790Z,48.40
2019-03-19T23:59:58.923Z,46.92
